createdAt,value
2022-12-18T00:00:19.063Z,11.39
2022-12-18T00:01:25.729Z,11.69
2022-12-18T00:02:28.102Z,11.77
2022-12-18T00:03:31.596Z,11.90
2022-12-18T00:04:34.955Z,11.92
2022-12-18T00:05:37.347Z,11.82
2022-12-18T00:06:40.779Z,11.72
2022-12-18T00:07:43.977Z,11.91
2022-12-18T00:08:47.793Z,11.86
2022-12-18T00:09:50.033Z,11.87
2022-12-18T00:10:53.433Z,11.88
2022-12-18T00:11:56.376Z,11.98
2022-12-18T00:13:00.724Z,11.96
2022-12-18T00:14:03.784Z,12.10
2022-12-18T00:15:07.784Z,12.18
2022-12-18T00:16:11.617Z,12.31
2022-12-18T00:17:16.614Z,12.23
2022-12-18T00:18:20.632Z,12.13
2022-12-18T00:19:24.415Z,11.89
2022-12-18T00:20:26.873Z,11.87
2022-12-18T00:21:31.735Z,11.83
2022-12-18T00:22:34.293Z,11.88
2022-12-18T00:23:40.023Z,11.83
2022-12-18T00:24:43.732Z,11.89
2022-12-18T00:25:45.960Z,11.93
2022-12-18T00:26:49.133Z,12.04
2022-12-18T00:27:51.383Z,11.84
2022-12-18T00:28:55.039Z,11.70
2022-12-18T00:29:57.259Z,11.73
2022-12-18T00:31:04.557Z,11.85
2022-12-18T00:32:06.814Z,12.01
2022-12-18T00:33:11.913Z,11.54
2022-12-18T00:34:14.797Z,11.41
2022-12-18T00:35:18.568Z,11.41
2022-12-18T00:36:23.256Z,11.18
2022-12-18T00:37:26.491Z,11.20
2022-12-18T00:38:28.910Z,11.21
2022-12-18T00:39:32.147Z,11.42
2022-12-18T00:40:34.587Z,11.51
2022-12-18T00:41:55.347Z,11.57
2022-12-18T00:42:57.570Z,11.37
2022-12-18T00:44:00.920Z,11.49
2022-12-18T00:45:07.635Z,11.59
2022-12-18T00:46:14.135Z,11.77
2022-12-18T00:47:16.503Z,11.52
2022-12-18T00:48:21.271Z,11.31
2022-12-18T00:49:23.731Z,11.16
2022-12-18T00:50:27.570Z,11.14
2022-12-18T00:51:29.854Z,11.13
2022-12-18T00:52:33.162Z,10.81
2022-12-18T00:53:35.710Z,10.87
2022-12-18T00:54:39.162Z,10.94
2022-12-18T00:55:42.143Z,10.87
2022-12-18T00:56:49.048Z,11.12
2022-12-18T00:57:53.105Z,11.17
2022-12-18T00:58:56.578Z,10.97
2022-12-18T00:59:59.900Z,10.82
2022-12-18T01:01:02.107Z,10.82
2022-12-18T01:02:05.504Z,10.82
2022-12-18T01:03:07.777Z,10.97
2022-12-18T01:04:12.800Z,10.87
2022-12-18T01:05:15.771Z,11.02
2022-12-18T01:06:19.484Z,10.89
2022-12-18T01:07:21.699Z,10.93
2022-12-18T01:08:25.245Z,10.97
2022-12-18T01:09:27.545Z,10.91
2022-12-18T01:10:30.981Z,10.82
2022-12-18T01:11:33.365Z,10.78
2022-12-18T01:12:36.770Z,10.78
2022-12-18T01:13:39.530Z,10.91
2022-12-18T01:14:43.032Z,10.55
2022-12-18T01:15:49.670Z,10.56
2022-12-18T01:16:53.104Z,10.80
2022-12-18T01:17:55.393Z,10.82
2022-12-18T01:18:58.804Z,10.59
2022-12-18T01:20:02.586Z,10.64
2022-12-18T01:21:09.317Z,10.69
2022-12-18T01:22:11.524Z,10.77
2022-12-18T01:23:14.934Z,10.73
2022-12-18T01:24:17.175Z,10.85
2022-12-18T01:25:20.515Z,10.65
2022-12-18T01:26:23.403Z,10.61
2022-12-18T01:27:26.652Z,10.69
2022-12-18T01:28:28.992Z,10.83
2022-12-18T01:29:32.439Z,11.09
2022-12-18T01:30:34.831Z,11.11
2022-12-18T01:31:38.255Z,11.25
2022-12-18T01:32:41.142Z,11.35
2022-12-18T01:33:44.452Z,11.00
2022-12-18T01:34:46.891Z,10.99
2022-12-18T01:35:51.651Z,10.65
2022-12-18T01:36:53.974Z,10.83
2022-12-18T01:37:57.498Z,10.96
2022-12-18T01:39:01.484Z,10.76
2022-12-18T01:40:05.279Z,10.97
2022-12-18T01:41:08.254Z,10.87
2022-12-18T01:42:14.246Z,10.79
2022-12-18T01:43:16.479Z,10.77
2022-12-18T01:45:02.487Z,10.73
2022-12-18T01:46:04.880Z,10.66
2022-12-18T01:47:08.182Z,10.55
2022-12-18T01:48:10.884Z,10.55
2022-12-18T01:49:14.245Z,10.53
2022-12-18T01:50:20.600Z,10.46
2022-12-18T01:51:25.777Z,10.71
2022-12-18T01:52:32.069Z,10.65
2022-12-18T01:53:35.745Z,10.65
2022-12-18T01:54:38.124Z,10.88
2022-12-18T01:55:47.805Z,11.02
2022-12-18T01:56:50.139Z,10.84
2022-12-18T01:57:56.192Z,10.98
2022-12-18T01:59:03.495Z,10.81
2022-12-18T02:00:10.343Z,10.73
2022-12-18T02:01:12.957Z,10.68
2022-12-18T02:02:18.149Z,10.91
2022-12-18T02:03:20.575Z,10.93
2022-12-18T02:04:25.155Z,11.08
2022-12-18T02:05:43.156Z,11.02
2022-12-18T02:06:49.433Z,10.87
2022-12-18T02:08:04.659Z,10.82
2022-12-18T02:09:15.220Z,10.82
2022-12-18T02:10:26.185Z,10.77
2022-12-18T02:11:40.939Z,10.59
2022-12-18T02:12:48.701Z,10.44
2022-12-18T02:14:01.507Z,10.43
2022-12-18T02:15:12.119Z,10.47
2022-12-18T02:16:22.475Z,10.38
2022-12-18T02:17:34.729Z,10.38
2022-12-18T02:18:41.021Z,10.31
2022-12-18T02:19:59.706Z,10.38
2022-12-18T02:21:10.608Z,10.44
2022-12-18T02:22:26.560Z,10.18
2022-12-18T02:23:42.775Z,10.02
2022-12-18T02:25:01.119Z,10.01
2022-12-18T02:26:11.223Z,10.14
2022-12-18T02:27:15.583Z,10.13
2022-12-18T02:28:21.183Z,10.22
2022-12-18T02:29:29.503Z,10.22
2022-12-18T02:30:35.070Z,10.26
2022-12-18T02:31:44.686Z,10.49
2022-12-18T02:32:52.268Z,10.21
2022-12-18T02:33:58.672Z,10.20
2022-12-18T02:35:03.360Z,10.20
2022-12-18T02:36:08.658Z,10.32
2022-12-18T02:37:15.014Z,10.48
2022-12-18T02:38:20.241Z,10.65
2022-12-18T02:39:25.171Z,10.54
2022-12-18T02:40:30.885Z,10.30
2022-12-18T02:41:37.242Z,10.35
2022-12-18T02:42:40.773Z,10.60
2022-12-18T02:43:48.797Z,10.64
2022-12-18T02:44:53.875Z,10.51
2022-12-18T02:45:58.481Z,10.58
2022-12-18T02:47:01.967Z,10.82
2022-12-18T02:48:04.685Z,10.77
2022-12-18T02:49:19.954Z,10.86
2022-12-18T02:50:32.339Z,10.93
2022-12-18T02:51:42.905Z,10.86
2022-12-18T02:52:57.358Z,10.89
2022-12-18T02:54:07.833Z,10.69
2022-12-18T02:55:22.360Z,10.76
2022-12-18T02:56:31.733Z,10.86
2022-12-18T02:57:45.273Z,10.66
2022-12-18T02:58:54.687Z,10.54
2022-12-18T03:00:03.853Z,10.49
2022-12-18T03:01:15.229Z,10.49
2022-12-18T03:02:26.459Z,10.33
2022-12-18T03:03:33.886Z,10.37
2022-12-18T03:04:42.628Z,10.34
2022-12-18T03:05:52.187Z,10.34
2022-12-18T03:06:58.536Z,10.29
2022-12-18T03:08:04.748Z,10.37
2022-12-18T03:09:14.356Z,10.38
2022-12-18T03:10:25.297Z,10.32
2022-12-18T03:11:51.103Z,10.34
2022-12-18T03:13:02.443Z,10.07
2022-12-18T03:14:08.155Z,10.23
2022-12-18T03:15:17.766Z,10.29
2022-12-18T03:16:25.581Z,10.34
2022-12-18T03:17:32.644Z,10.37
2022-12-18T03:18:39.657Z,10.35
2022-12-18T03:19:45.266Z,10.37
2022-12-18T03:20:51.373Z,10.28
2022-12-18T03:21:57.972Z,10.42
2022-12-18T03:23:08.903Z,10.32
2022-12-18T03:24:13.435Z,10.39
2022-12-18T03:25:18.817Z,10.35
2022-12-18T03:26:25.697Z,10.35
2022-12-18T03:27:30.416Z,10.13
2022-12-18T03:28:40.711Z,10.19
2022-12-18T03:29:48.797Z,10.13
2022-12-18T03:30:57.852Z,10.48
2022-12-18T03:32:05.806Z,10.32
2022-12-18T03:33:13.250Z,10.46
2022-12-18T03:34:18.401Z,10.66
2022-12-18T03:35:25.120Z,10.76
2022-12-18T03:36:28.537Z,10.77
2022-12-18T03:37:33.492Z,10.78
2022-12-18T03:38:35.984Z,10.86
2022-12-18T03:39:39.848Z,11.03
2022-12-18T03:40:54.258Z,10.67
2022-12-18T03:42:07.268Z,10.52
2022-12-18T03:43:14.644Z,10.26
2022-12-18T03:44:30.386Z,10.55
2022-12-18T03:45:37.375Z,10.58
2022-12-18T03:46:49.295Z,10.51
2022-12-18T03:48:01.247Z,10.56
2022-12-18T03:49:12.323Z,10.71
2022-12-18T03:50:21.056Z,10.79
2022-12-18T03:51:30.671Z,10.61
2022-12-18T03:52:39.594Z,10.67
2022-12-18T03:53:50.219Z,10.84
2022-12-18T03:54:56.497Z,10.85
2022-12-18T03:56:02.930Z,10.79
2022-12-18T03:57:10.785Z,10.79
2022-12-18T03:58:18.389Z,10.81
2022-12-18T03:59:23.353Z,10.95
2022-12-18T04:00:26.782Z,10.72
2022-12-18T04:01:33.831Z,10.97
2022-12-18T04:02:41.131Z,11.14
2022-12-18T04:03:45.991Z,11.17
2022-12-18T04:04:53.427Z,11.25
2022-12-18T04:05:57.083Z,11.15
2022-12-18T04:07:01.611Z,11.14
2022-12-18T04:08:04.639Z,11.19
2022-12-18T04:09:08.484Z,11.16
2022-12-18T04:10:13.028Z,10.98
2022-12-18T04:11:17.950Z,10.75
2022-12-18T04:12:20.197Z,10.93
2022-12-18T04:13:29.568Z,10.82
2022-12-18T04:14:36.772Z,10.75
2022-12-18T04:15:41.666Z,10.83
2022-12-18T04:16:44.152Z,10.76
2022-12-18T04:17:50.976Z,10.60
2022-12-18T04:18:53.586Z,10.42
2022-12-18T04:19:56.963Z,10.48
2022-12-18T04:20:59.593Z,10.49
2022-12-18T04:22:03.138Z,10.62
2022-12-18T04:23:05.704Z,10.35
2022-12-18T04:24:09.438Z,10.40
2022-12-18T04:25:11.909Z,10.48
2022-12-18T04:26:15.288Z,10.71
2022-12-18T04:27:17.638Z,10.68
2022-12-18T04:28:21.127Z,10.68
2022-12-18T04:29:24.025Z,10.81
2022-12-18T04:30:29.162Z,10.82
2022-12-18T04:31:31.541Z,10.92
2022-12-18T04:32:35.864Z,11.05
2022-12-18T04:33:38.413Z,11.02
2022-12-18T04:34:41.887Z,10.97
2022-12-18T04:35:44.353Z,10.92
2022-12-18T04:36:47.905Z,11.02
2022-12-18T04:37:50.271Z,11.01
2022-12-18T04:38:53.875Z,11.14
2022-12-18T04:39:56.556Z,11.18
2022-12-18T04:41:00.159Z,11.31
2022-12-18T04:42:02.319Z,11.40
2022-12-18T04:43:06.557Z,11.42
2022-12-18T04:44:09.228Z,11.37
2022-12-18T04:45:12.743Z,11.45
2022-12-18T04:46:16.313Z,11.43
2022-12-18T04:47:20.197Z,11.51
2022-12-18T04:48:22.509Z,11.48
2022-12-18T04:49:25.967Z,11.59
2022-12-18T04:50:28.815Z,11.55
2022-12-18T04:51:32.198Z,11.66
2022-12-18T04:52:34.477Z,11.49
2022-12-18T04:53:38.165Z,11.27
2022-12-18T04:54:40.984Z,11.28
2022-12-18T04:55:44.413Z,11.26
2022-12-18T04:56:46.879Z,10.95
2022-12-18T04:57:50.258Z,10.88
2022-12-18T04:58:52.607Z,10.85
2022-12-18T04:59:55.956Z,10.60
2022-12-18T05:00:58.444Z,10.46
2022-12-18T05:02:03.529Z,10.50
2022-12-18T05:03:05.990Z,10.33
2022-12-18T05:04:09.495Z,10.23
2022-12-18T05:05:11.932Z,10.05
2022-12-18T05:06:15.307Z,10.27
2022-12-18T05:07:17.652Z,10.19
2022-12-18T05:08:21.451Z,9.99
2022-12-18T05:09:25.000Z,9.81
2022-12-18T05:10:29.628Z,9.82
2022-12-18T05:11:34.535Z,10.02
2022-12-18T05:12:59.346Z,9.87
2022-12-18T05:14:03.594Z,9.80
2022-12-18T05:15:08.019Z,9.89
2022-12-18T05:16:10.671Z,9.80
2022-12-18T05:17:15.519Z,9.95
2022-12-18T05:18:17.886Z,9.94
2022-12-18T05:19:21.287Z,9.94
2022-12-18T05:20:23.811Z,10.05
2022-12-18T05:21:27.169Z,10.10
2022-12-18T05:22:29.429Z,10.16
2022-12-18T05:23:32.679Z,9.96
2022-12-18T05:24:34.968Z,9.96
2022-12-18T05:25:38.319Z,9.96
2022-12-18T05:26:40.997Z,9.87
2022-12-18T05:27:44.978Z,9.91
2022-12-18T05:28:47.391Z,10.20
2022-12-18T05:29:50.860Z,10.17
2022-12-18T05:30:54.567Z,10.08
2022-12-18T05:31:58.106Z,10.12
2022-12-18T05:33:01.839Z,9.89
2022-12-18T05:34:05.117Z,10.08
2022-12-18T05:35:09.618Z,10.01
2022-12-18T05:36:13.294Z,9.97
2022-12-18T05:37:15.709Z,10.02
2022-12-18T05:38:19.165Z,10.02
2022-12-18T05:39:21.512Z,9.96
2022-12-18T05:40:24.763Z,10.03
2022-12-18T05:41:27.065Z,9.94
2022-12-18T05:42:30.368Z,10.04
2022-12-18T05:43:35.186Z,10.04
2022-12-18T05:44:38.391Z,9.91
2022-12-18T05:45:41.882Z,9.99
2022-12-18T05:46:45.283Z,10.04
2022-12-18T05:47:47.572Z,10.10
2022-12-18T05:48:52.683Z,10.25
2022-12-18T05:49:55.625Z,10.22
2022-12-18T05:51:06.793Z,10.23
2022-12-18T05:52:09.238Z,10.12
2022-12-18T05:53:12.471Z,10.11
2022-12-18T05:54:15.089Z,10.15
2022-12-18T05:55:18.429Z,10.10
2022-12-18T05:56:23.094Z,10.20
2022-12-18T05:57:26.426Z,10.10
2022-12-18T05:58:29.189Z,10.27
2022-12-18T05:59:32.571Z,10.33
2022-12-18T06:00:37.147Z,10.45
2022-12-18T06:01:40.594Z,10.49
2022-12-18T06:02:42.901Z,10.35
2022-12-18T06:03:46.764Z,10.34
2022-12-18T06:04:50.916Z,10.32
2022-12-18T06:05:54.158Z,10.21
2022-12-18T06:06:56.390Z,10.13
2022-12-18T06:08:00.298Z,10.21
2022-12-18T06:09:02.864Z,10.34
2022-12-18T06:10:07.529Z,10.38
2022-12-18T06:11:09.754Z,10.39
2022-12-18T06:12:13.412Z,10.40
2022-12-18T06:13:15.901Z,10.52
2022-12-18T06:14:19.294Z,10.49
2022-12-18T06:15:21.606Z,10.35
2022-12-18T06:16:25.466Z,10.56
2022-12-18T06:17:30.204Z,10.44
2022-12-18T06:18:33.628Z,10.39
2022-12-18T06:19:36.131Z,10.27
2022-12-18T06:20:42.446Z,10.32
2022-12-18T06:21:44.992Z,10.25
2022-12-18T06:22:48.332Z,10.38
2022-12-18T06:23:51.140Z,10.34
2022-12-18T06:24:54.444Z,10.62
2022-12-18T06:25:57.554Z,10.35
2022-12-18T06:27:01.015Z,10.43
2022-12-18T06:28:03.464Z,10.57
2022-12-18T06:29:07.034Z,10.67
2022-12-18T06:30:11.726Z,10.86
2022-12-18T06:31:15.160Z,10.89
2022-12-18T06:32:17.827Z,10.63
2022-12-18T06:33:21.066Z,10.53
2022-12-18T06:34:23.655Z,10.48
2022-12-18T06:35:27.062Z,10.42
2022-12-18T06:36:30.667Z,10.26
2022-12-18T06:37:34.191Z,10.30
2022-12-18T06:38:38.776Z,10.35
2022-12-18T06:39:42.270Z,10.27
2022-12-18T06:40:44.415Z,10.22
2022-12-18T06:41:48.176Z,10.24
2022-12-18T06:42:50.506Z,10.39
2022-12-18T06:43:59.327Z,10.15
2022-12-18T06:45:02.113Z,10.24
2022-12-18T06:46:07.459Z,10.08
2022-12-18T06:47:10.165Z,10.23
2022-12-18T06:48:13.520Z,10.07
2022-12-18T06:49:17.056Z,10.14
2022-12-18T06:50:20.419Z,9.87
2022-12-18T06:51:24.747Z,9.92
2022-12-18T06:52:29.537Z,10.03
2022-12-18T06:53:33.256Z,9.99
2022-12-18T06:54:36.796Z,9.93
2022-12-18T06:55:39.071Z,9.90
2022-12-18T06:56:42.716Z,10.02
2022-12-18T06:57:45.049Z,10.29
2022-12-18T06:58:48.338Z,10.11
2022-12-18T06:59:51.053Z,10.16
2022-12-18T07:00:54.469Z,10.10
2022-12-18T07:01:57.875Z,10.03
2022-12-18T07:03:01.393Z,10.07
2022-12-18T07:04:03.716Z,9.99
2022-12-18T07:05:10.963Z,10.01
2022-12-18T07:06:16.485Z,9.92
2022-12-18T07:07:20.393Z,9.83
2022-12-18T07:08:24.278Z,9.89
2022-12-18T07:09:29.984Z,9.83
2022-12-18T07:10:32.237Z,9.76
2022-12-18T07:11:36.095Z,9.84
2022-12-18T07:12:38.485Z,9.67
2022-12-18T07:13:42.033Z,9.71
2022-12-18T07:14:44.702Z,9.72
2022-12-18T07:15:48.086Z,9.69
2022-12-18T07:16:51.567Z,9.79
2022-12-18T07:17:54.401Z,10.01
2022-12-18T07:18:58.375Z,9.99
2022-12-18T07:20:00.611Z,9.85
2022-12-18T07:21:07.523Z,10.04
2022-12-18T07:22:09.752Z,9.88
2022-12-18T07:23:13.061Z,9.96
2022-12-18T07:24:16.864Z,10.14
2022-12-18T07:25:20.460Z,10.19
2022-12-18T07:26:23.463Z,10.05
2022-12-18T07:27:27.227Z,9.97
2022-12-18T07:28:30.490Z,9.95
2022-12-18T07:29:33.988Z,10.04
2022-12-18T07:30:39.593Z,9.90
2022-12-18T07:31:41.949Z,10.01
2022-12-18T07:32:45.277Z,9.90
2022-12-18T07:33:48.096Z,9.82
2022-12-18T07:34:51.440Z,9.70
2022-12-18T07:35:53.862Z,9.73
2022-12-18T07:36:57.175Z,9.70
2022-12-18T07:37:59.304Z,9.75
2022-12-18T07:39:02.717Z,9.80
2022-12-18T07:40:07.965Z,9.82
2022-12-18T07:41:13.986Z,9.86
2022-12-18T07:42:34.421Z,9.98
2022-12-18T07:43:38.612Z,9.94
2022-12-18T07:44:42.235Z,9.93
2022-12-18T07:45:45.077Z,9.98
2022-12-18T07:46:48.290Z,10.14
2022-12-18T07:47:51.119Z,10.04
2022-12-18T07:48:54.562Z,9.92
2022-12-18T07:49:56.961Z,10.02
2022-12-18T07:51:01.232Z,10.26
2022-12-18T07:52:03.615Z,10.48
2022-12-18T07:53:07.163Z,10.42
2022-12-18T07:54:09.523Z,10.41
2022-12-18T07:55:14.555Z,10.43
2022-12-18T07:56:32.395Z,10.53
2022-12-18T07:57:50.401Z,10.51
2022-12-18T07:58:54.809Z,10.21
2022-12-18T07:59:58.172Z,10.38
2022-12-18T08:01:04.707Z,10.53
2022-12-18T08:02:09.980Z,10.48
2022-12-18T08:03:13.777Z,10.67
2022-12-18T08:04:17.216Z,10.66
2022-12-18T08:05:19.435Z,10.78
2022-12-18T08:06:24.081Z,10.80
2022-12-18T08:07:26.977Z,10.88
2022-12-18T08:08:30.541Z,10.97
2022-12-18T08:09:32.914Z,11.09
2022-12-18T08:10:37.641Z,11.09
2022-12-18T08:11:41.307Z,10.94
2022-12-18T08:12:43.593Z,11.00
2022-12-18T08:13:46.876Z,11.06
2022-12-18T08:14:49.096Z,11.19
2022-12-18T08:15:59.172Z,11.22
2022-12-18T08:17:02.645Z,11.42
2022-12-18T08:18:06.523Z,11.39
2022-12-18T08:19:12.812Z,11.46
2022-12-18T08:20:16.069Z,11.38
2022-12-18T08:21:22.362Z,11.42
2022-12-18T08:22:26.552Z,11.66
2022-12-18T08:23:29.018Z,11.62
2022-12-18T08:24:32.358Z,11.73
2022-12-18T08:25:36.972Z,11.71
2022-12-18T08:26:40.224Z,11.68
2022-12-18T08:28:41.552Z,11.91
2022-12-18T08:29:44.917Z,11.88
2022-12-18T08:30:47.171Z,12.08
2022-12-18T08:31:50.572Z,12.21
2022-12-18T08:32:54.107Z,12.08
2022-12-18T08:33:57.720Z,12.13
2022-12-18T08:35:00.157Z,12.20
2022-12-18T08:36:04.933Z,12.34
2022-12-18T08:37:08.522Z,12.50
2022-12-18T08:38:10.981Z,12.60
2022-12-18T08:39:14.879Z,12.72
2022-12-18T08:40:17.457Z,12.90
2022-12-18T08:41:22.839Z,12.97
2022-12-18T08:42:43.840Z,13.11
2022-12-18T08:44:05.115Z,13.29
2022-12-18T08:45:09.713Z,13.01
2022-12-18T08:46:12.382Z,13.02
2022-12-18T08:47:15.840Z,13.10
2022-12-18T08:48:22.205Z,13.14
2022-12-18T08:49:25.756Z,13.21
2022-12-18T08:50:28.067Z,13.17
2022-12-18T08:51:31.644Z,13.41
2022-12-18T08:52:35.294Z,13.42
2022-12-18T08:53:37.852Z,13.39
2022-12-18T08:54:41.511Z,13.79
2022-12-18T08:55:49.957Z,14.09
2022-12-18T08:56:55.083Z,14.24
2022-12-18T08:57:57.232Z,14.40
2022-12-18T08:59:00.716Z,14.55
2022-12-18T09:00:04.721Z,14.76
2022-12-18T09:01:10.443Z,14.47
2022-12-18T09:02:14.133Z,14.59
2022-12-18T09:03:18.347Z,14.77
2022-12-18T09:04:21.943Z,14.62
2022-12-18T09:05:25.770Z,14.67
2022-12-18T09:06:28.041Z,14.90
2022-12-18T09:07:31.405Z,14.73
2022-12-18T09:08:33.603Z,14.92
2022-12-18T09:09:38.421Z,14.80
2022-12-18T09:10:43.681Z,14.92
2022-12-18T09:11:47.306Z,15.04
2022-12-18T09:12:51.298Z,14.62
2022-12-18T09:13:56.139Z,14.72
2022-12-18T09:14:58.595Z,14.71
2022-12-18T09:16:01.939Z,14.72
2022-12-18T09:17:04.426Z,14.78
2022-12-18T09:18:08.320Z,14.82
2022-12-18T09:19:12.390Z,14.95
2022-12-18T09:20:15.943Z,15.14
2022-12-18T09:21:21.430Z,15.04
2022-12-18T09:22:24.862Z,14.98
2022-12-18T09:23:27.085Z,15.08
2022-12-18T09:24:30.253Z,15.02
2022-12-18T09:25:34.261Z,14.99
2022-12-18T09:26:37.745Z,15.20
2022-12-18T09:27:42.130Z,15.03
2022-12-18T09:28:46.029Z,15.03
2022-12-18T09:29:49.313Z,15.06
2022-12-18T09:30:51.578Z,15.23
2022-12-18T09:31:54.991Z,15.48
2022-12-18T09:32:57.452Z,15.45
2022-12-18T09:34:00.817Z,15.41
2022-12-18T09:35:04.254Z,15.14
2022-12-18T09:36:09.271Z,15.43
2022-12-18T09:37:12.737Z,15.58
2022-12-18T09:38:16.718Z,15.71
2022-12-18T09:39:23.449Z,15.83
2022-12-18T09:40:30.370Z,15.73
2022-12-18T09:41:45.095Z,15.82
2022-12-18T09:42:53.224Z,15.97
2022-12-18T09:44:02.006Z,15.99
2022-12-18T09:45:06.506Z,15.78
2022-12-18T09:46:13.538Z,16.17
2022-12-18T09:47:21.933Z,15.83
2022-12-18T09:48:29.505Z,16.10
2022-12-18T09:49:37.262Z,16.01
2022-12-18T09:50:42.838Z,16.34
2022-12-18T09:51:49.429Z,16.35
2022-12-18T09:52:58.948Z,16.35
2022-12-18T09:54:05.974Z,16.74
2022-12-18T09:55:26.656Z,16.28
2022-12-18T09:56:33.137Z,16.63
2022-12-18T09:57:41.720Z,16.82
2022-12-18T09:58:51.431Z,16.94
2022-12-18T10:00:00.010Z,17.00
2022-12-18T10:01:03.755Z,17.17
2022-12-18T10:02:22.479Z,17.13
2022-12-18T10:03:26.000Z,16.96
2022-12-18T10:04:31.346Z,16.84
2022-12-18T10:05:42.505Z,17.10
2022-12-18T10:06:50.971Z,17.02
2022-12-18T10:08:04.679Z,16.18
2022-12-18T10:09:15.089Z,16.47
2022-12-18T10:10:28.204Z,16.75
2022-12-18T10:11:42.190Z,16.93
2022-12-18T10:13:00.934Z,16.84
2022-12-18T10:14:17.786Z,16.55
2022-12-18T10:15:32.720Z,16.72
2022-12-18T10:16:43.870Z,16.69
2022-12-18T10:17:54.082Z,16.61
2022-12-18T10:19:20.559Z,16.52
2022-12-18T10:20:31.008Z,16.73
2022-12-18T10:21:41.648Z,16.84
2022-12-18T10:22:55.477Z,16.91
2022-12-18T10:24:07.075Z,16.78
2022-12-18T10:25:21.599Z,16.95
2022-12-18T10:26:25.023Z,16.90
2022-12-18T10:27:29.355Z,16.88
2022-12-18T10:28:34.959Z,17.07
2022-12-18T10:29:37.557Z,17.03
2022-12-18T10:30:43.681Z,16.95
2022-12-18T10:31:46.040Z,17.00
2022-12-18T10:32:49.335Z,16.60
2022-12-18T10:33:51.666Z,16.36
2022-12-18T10:35:00.507Z,16.65
2022-12-18T10:36:04.509Z,16.63
2022-12-18T10:37:14.024Z,16.92
2022-12-18T10:38:26.174Z,17.08
2022-12-18T10:39:28.331Z,17.18
2022-12-18T10:40:32.665Z,16.93
2022-12-18T10:41:34.947Z,17.17
2022-12-18T10:42:38.437Z,17.02
2022-12-18T10:43:42.826Z,16.92
2022-12-18T10:44:45.343Z,16.69
2022-12-18T10:46:02.868Z,16.43
2022-12-18T10:47:12.900Z,16.45
2022-12-18T10:48:23.450Z,16.48
2022-12-18T10:49:29.690Z,16.77
2022-12-18T10:51:09.308Z,16.95
2022-12-18T10:52:16.655Z,16.97
2022-12-18T10:53:22.877Z,17.21
2022-12-18T10:54:27.543Z,17.36
2022-12-18T10:55:35.091Z,17.16
2022-12-18T10:56:40.285Z,17.02
2022-12-18T10:57:44.598Z,16.70
2022-12-18T10:58:58.620Z,16.58
2022-12-18T11:00:22.526Z,16.36
2022-12-18T11:01:28.064Z,16.54
2022-12-18T11:02:38.099Z,16.39
2022-12-18T11:03:43.815Z,16.56
2022-12-18T11:04:53.301Z,16.36
2022-12-18T11:06:05.446Z,16.38
2022-12-18T11:07:11.905Z,16.43
2022-12-18T11:08:23.791Z,16.48
2022-12-18T11:09:28.922Z,15.99
2022-12-18T11:10:33.906Z,16.34
2022-12-18T11:11:37.335Z,16.48
2022-12-18T11:12:39.543Z,16.42
2022-12-18T11:13:43.344Z,16.51
2022-12-18T11:14:49.190Z,16.30
2022-12-18T11:15:53.208Z,16.56
2022-12-18T11:18:29.165Z,16.53
2022-12-18T11:19:36.414Z,16.51
2022-12-18T11:20:41.603Z,16.51
2022-12-18T11:21:44.230Z,16.64
2022-12-18T11:22:58.227Z,16.70
2022-12-18T11:24:01.455Z,16.39
2022-12-18T11:25:32.572Z,16.41
2022-12-18T11:26:37.349Z,16.73
2022-12-18T11:27:40.592Z,16.62
2022-12-18T11:28:48.874Z,16.48
2022-12-18T11:29:53.269Z,16.54
2022-12-18T11:31:17.987Z,15.98
2022-12-18T11:32:36.413Z,16.20
2022-12-18T11:33:58.362Z,15.99
2022-12-18T11:35:19.492Z,16.40
2022-12-18T11:36:24.888Z,16.01
2022-12-18T11:37:30.039Z,16.37
2022-12-18T11:38:37.568Z,16.05
2022-12-18T11:39:44.005Z,16.30
2022-12-18T11:40:54.180Z,16.16
2022-12-18T11:42:10.393Z,16.36
2022-12-18T11:43:19.432Z,16.49
2022-12-18T11:44:27.689Z,16.68
2022-12-18T11:45:33.382Z,16.71
2022-12-18T11:46:39.642Z,16.75
2022-12-18T11:47:52.108Z,16.82
2022-12-18T11:49:02.454Z,16.82
2022-12-18T11:50:16.522Z,16.94
2022-12-18T11:51:30.488Z,16.80
2022-12-18T11:52:40.067Z,16.72
2022-12-18T11:53:43.509Z,17.04
2022-12-18T11:54:45.787Z,17.11
2022-12-18T11:56:07.219Z,17.17
2022-12-18T11:57:19.840Z,17.50
2022-12-18T11:58:35.530Z,17.65
2022-12-18T11:59:49.640Z,17.51
2022-12-18T12:01:05.679Z,17.35
2022-12-18T12:02:33.330Z,16.77
2022-12-18T12:04:00.290Z,16.45
2022-12-18T12:05:18.609Z,16.47
2022-12-18T12:06:29.408Z,16.66
2022-12-18T12:07:44.261Z,16.55
2022-12-18T12:09:03.844Z,16.59
2022-12-18T12:10:20.942Z,16.65
2022-12-18T12:11:35.735Z,16.67
2022-12-18T12:12:54.831Z,16.45
2022-12-18T12:14:11.415Z,16.72
2022-12-18T12:15:25.385Z,16.66
2022-12-18T12:16:35.793Z,16.65
2022-12-18T12:17:44.062Z,16.82
2022-12-18T12:19:09.190Z,16.75
2022-12-18T12:20:22.646Z,16.85
2022-12-18T12:21:37.044Z,16.80
2022-12-18T12:22:51.967Z,16.68
2022-12-18T12:24:01.748Z,16.48
2022-12-18T12:25:22.568Z,16.27
2022-12-18T12:26:33.961Z,16.07
2022-12-18T12:27:46.824Z,15.87
2022-12-18T12:29:10.657Z,16.13
2022-12-18T12:30:20.266Z,16.24
2022-12-18T12:31:36.161Z,16.32
2022-12-18T12:33:01.925Z,16.64
2022-12-18T12:34:18.997Z,16.54
2022-12-18T12:35:34.658Z,16.62
2022-12-18T12:37:04.013Z,16.54
2022-12-18T12:38:12.418Z,16.61
2022-12-18T12:39:20.291Z,16.53
2022-12-18T12:42:18.799Z,16.71
2022-12-18T12:43:33.521Z,16.39
2022-12-18T12:44:43.068Z,16.11
2022-12-18T12:45:51.661Z,16.23
2022-12-18T12:46:58.684Z,16.24
2022-12-18T12:48:03.706Z,16.44
2022-12-18T12:49:15.725Z,16.45
2022-12-18T12:50:21.528Z,16.59
2022-12-18T12:51:29.453Z,16.47
2022-12-18T12:52:37.135Z,16.46
2022-12-18T12:53:42.746Z,16.24
2022-12-18T12:54:47.496Z,16.61
2022-12-18T12:55:50.239Z,16.84
2022-12-18T12:57:00.128Z,16.64
2022-12-18T12:58:11.695Z,16.77
2022-12-18T12:59:22.163Z,16.86
2022-12-18T13:00:26.802Z,16.74
2022-12-18T13:01:38.380Z,16.91
2022-12-18T13:02:49.695Z,16.97
2022-12-18T13:04:02.545Z,16.85
2022-12-18T13:05:19.096Z,16.82
2022-12-18T13:06:36.927Z,16.62
2022-12-18T13:07:47.677Z,16.40
2022-12-18T13:08:57.765Z,16.50
2022-12-18T13:10:17.884Z,16.65
2022-12-18T13:11:54.929Z,16.60
2022-12-18T13:13:04.210Z,16.11
2022-12-18T13:14:25.199Z,16.42
2022-12-18T13:15:35.867Z,16.57
2022-12-18T13:16:41.481Z,16.42
2022-12-18T13:17:45.294Z,16.16
2022-12-18T13:18:52.933Z,16.26
2022-12-18T13:20:11.735Z,16.12
2022-12-18T13:21:24.604Z,16.17
2022-12-18T13:22:34.901Z,15.92
2022-12-18T13:23:39.593Z,15.97
2022-12-18T13:24:42.052Z,15.86
2022-12-18T13:25:45.696Z,15.42
2022-12-18T13:26:47.948Z,15.32
2022-12-18T13:28:02.918Z,15.16
2022-12-18T13:29:07.315Z,15.06
2022-12-18T13:30:46.400Z,14.97
2022-12-18T13:32:22.900Z,14.92
2022-12-18T13:35:41.669Z,15.65
2022-12-18T13:36:45.532Z,15.76
2022-12-18T13:37:54.091Z,15.79
2022-12-18T13:39:32.788Z,16.07
2022-12-18T13:40:57.465Z,15.95
2022-12-18T13:42:57.923Z,15.80
2022-12-18T13:44:14.497Z,15.81
2022-12-18T13:45:47.559Z,15.70
2022-12-18T13:46:53.417Z,15.88
2022-12-18T13:47:55.976Z,15.74
2022-12-18T13:49:03.640Z,15.69
2022-12-18T13:50:22.199Z,15.62
2022-12-18T13:51:28.428Z,15.79
2022-12-18T13:52:38.501Z,15.95
2022-12-18T13:53:46.798Z,15.89
2022-12-18T13:54:53.795Z,15.84
2022-12-18T13:55:56.775Z,15.71
2022-12-18T13:57:00.035Z,15.64
2022-12-18T13:58:05.911Z,15.65
2022-12-18T13:59:22.981Z,15.56
2022-12-18T14:00:29.778Z,15.76
2022-12-18T14:01:33.175Z,15.64
2022-12-18T14:02:36.950Z,15.60
2022-12-18T14:03:40.698Z,15.55
2022-12-18T14:04:48.888Z,15.60
2022-12-18T14:06:00.685Z,15.62
2022-12-18T14:07:08.090Z,15.65
2022-12-18T14:08:14.071Z,15.67
2022-12-18T14:09:21.469Z,15.69
2022-12-18T14:10:47.794Z,15.60
2022-12-18T14:11:50.580Z,15.59
2022-12-18T14:12:57.929Z,15.63
2022-12-18T14:14:08.338Z,15.65
2022-12-18T14:15:23.357Z,15.65
2022-12-18T14:16:27.366Z,15.73
2022-12-18T14:17:30.705Z,15.65
2022-12-18T14:18:41.435Z,15.55
2022-12-18T14:19:46.020Z,15.45
2022-12-18T14:20:52.831Z,15.58
2022-12-18T14:21:55.682Z,15.74
2022-12-18T14:23:01.244Z,15.67
2022-12-18T14:24:15.823Z,15.58
2022-12-18T14:25:25.430Z,15.63
2022-12-18T14:26:30.953Z,15.68
2022-12-18T14:27:33.341Z,15.58
2022-12-18T14:28:46.197Z,15.55